createdAt,value
2018-06-02T00:00:27.877Z,68.70
2018-06-02T00:02:58.799Z,68.98
2018-06-02T00:05:27.398Z,68.93
2018-06-02T00:07:56.031Z,69.13
2018-06-02T00:10:25.095Z,69.08
2018-06-02T00:12:53.623Z,68.96
2018-06-02T00:15:22.533Z,69.61
2018-06-02T00:17:56.337Z,69.80
2018-06-02T00:20:24.839Z,69.97
2018-06-02T00:22:53.356Z,70.20
2018-06-02T00:25:22.282Z,70.38
2018-06-02T00:27:50.792Z,70.64
2018-06-02T00:30:21.711Z,70.58
2018-06-02T00:32:50.507Z,70.78
2018-06-02T00:35:19.286Z,71.00
2018-06-02T00:37:47.856Z,71.09
2018-06-02T00:40:22.818Z,71.30
2018-06-02T00:42:51.418Z,71.31
2018-06-02T00:45:21.851Z,71.39
2018-06-02T00:47:50.349Z,71.43
2018-06-02T00:50:20.222Z,71.16
2018-06-02T00:52:49.069Z,71.20
2018-06-02T00:55:23.792Z,71.23
2018-06-02T00:57:52.381Z,71.23
2018-06-02T01:00:21.262Z,71.19
2018-06-02T01:02:49.805Z,71.21
2018-06-02T01:05:18.907Z,71.52
2018-06-02T01:07:47.647Z,71.49
2018-06-02T01:10:17.559Z,71.47
2018-06-02T01:12:46.077Z,71.40
2018-06-02T01:15:19.004Z,71.67
2018-06-02T01:17:47.749Z,71.75
2018-06-02T01:20:17.311Z,71.46
2018-06-02T01:22:46.194Z,71.75
2018-06-02T01:25:18.832Z,72.36
2018-06-02T01:27:52.876Z,72.81
2018-06-02T01:30:22.709Z,73.17
2018-06-02T01:32:51.212Z,73.45
2018-06-02T01:35:19.767Z,73.54
2018-06-02T01:37:48.858Z,73.63
2018-06-02T01:40:17.371Z,74.04
2018-06-02T01:42:45.866Z,74.02
2018-06-02T01:47:47.931Z,74.41
2018-06-02T01:50:22.382Z,74.43
2018-06-02T01:52:51.217Z,74.27
2018-06-02T01:55:19.717Z,74.13
2018-06-02T01:57:48.231Z,74.30
2018-06-02T02:00:20.516Z,74.64
2018-06-02T02:02:49.690Z,75.02
2018-06-02T02:05:18.605Z,75.20
2018-06-02T02:07:47.423Z,75.48
2018-06-02T02:10:16.531Z,76.03
2018-06-02T02:12:45.061Z,76.17
2018-06-02T02:15:14.152Z,76.30
2018-06-02T02:17:42.735Z,76.26
2018-06-02T02:20:11.241Z,76.56
2018-06-02T02:22:40.225Z,76.65
2018-06-02T02:25:08.871Z,76.75
2018-06-02T02:27:37.449Z,76.77
2018-06-02T02:30:06.267Z,76.85
2018-06-02T02:32:34.796Z,76.96
2018-06-02T02:35:07.236Z,76.84
2018-06-02T02:37:36.023Z,76.99
2018-06-02T02:40:06.321Z,77.11
2018-06-02T02:42:34.884Z,77.21
2018-06-02T02:45:03.781Z,77.22
2018-06-02T02:47:32.549Z,77.24
2018-06-02T02:50:01.027Z,77.36
2018-06-02T02:52:29.809Z,77.61
2018-06-02T02:54:58.630Z,77.85
2018-06-02T02:57:27.069Z,77.95
2018-06-02T02:59:57.752Z,78.35
2018-06-02T03:02:26.445Z,78.46
2018-06-02T03:04:54.950Z,78.77
2018-06-02T03:07:23.798Z,78.72
2018-06-02T03:09:52.339Z,78.88
2018-06-02T03:12:20.860Z,80.44
2018-06-02T03:14:49.727Z,80.64
2018-06-02T03:17:18.239Z,80.90
2018-06-02T03:19:46.767Z,81.17
2018-06-02T03:24:55.311Z,81.08
2018-06-02T03:27:28.060Z,80.89
2018-06-02T03:29:56.671Z,80.26
2018-06-02T03:32:28.863Z,80.51
2018-06-02T03:34:57.632Z,80.64
2018-06-02T03:37:26.702Z,80.77
2018-06-02T03:39:55.192Z,80.78
2018-06-02T03:42:23.979Z,80.86
2018-06-02T03:44:52.489Z,80.81
2018-06-02T03:47:21.242Z,81.11
2018-06-02T03:49:49.800Z,80.93
2018-06-02T03:52:18.361Z,80.87
2018-06-02T03:54:48.783Z,81.00
2018-06-02T03:57:17.648Z,81.06
2018-06-02T03:59:46.255Z,81.02
2018-06-02T04:02:15.062Z,81.00
2018-06-02T04:04:43.941Z,80.98
2018-06-02T04:07:12.877Z,80.60
2018-06-02T04:09:41.392Z,80.45
2018-06-02T04:12:10.098Z,80.43
2018-06-02T04:14:42.189Z,80.34
2018-06-02T04:17:10.867Z,80.27
2018-06-02T04:19:39.374Z,80.33
2018-06-02T04:22:08.235Z,80.43
2018-06-02T04:24:36.769Z,80.16
2018-06-02T04:27:05.300Z,80.08
2018-06-02T04:29:34.405Z,79.99
2018-06-02T04:32:03.823Z,79.92
2018-06-02T04:34:32.307Z,79.86
2018-06-02T04:37:01.251Z,79.86
2018-06-02T04:39:29.781Z,79.93
2018-06-02T04:41:58.322Z,79.63
2018-06-02T04:44:26.852Z,79.51
2018-06-02T04:46:55.720Z,79.40
2018-06-02T04:49:24.315Z,79.37
2018-06-02T04:51:52.838Z,78.98
2018-06-02T04:54:21.650Z,79.00
2018-06-02T04:56:50.242Z,78.38
2018-06-02T04:59:18.835Z,77.67
2018-06-02T05:01:47.378Z,77.12
2018-06-02T05:04:22.109Z,76.90
2018-06-02T05:06:50.775Z,76.09
2018-06-02T05:09:19.288Z,75.56
2018-06-02T05:11:48.151Z,74.75
2018-06-02T05:14:16.712Z,73.46
2018-06-02T05:16:46.310Z,72.81
2018-06-02T05:19:15.706Z,71.57
2018-06-02T05:24:48.986Z,70.88
2018-06-02T05:31:15.053Z,69.92
2018-06-02T05:33:44.787Z,70.00
2018-06-02T05:36:14.227Z,69.48
2018-06-02T05:38:42.754Z,68.19
2018-06-02T05:41:20.141Z,67.65
2018-06-02T05:43:49.071Z,67.55
2018-06-02T05:46:17.796Z,67.98
2018-06-02T05:48:46.647Z,68.19
2018-06-02T05:51:16.450Z,68.57
2018-06-02T05:53:44.963Z,68.57
2018-06-02T05:56:14.495Z,68.21
2018-06-02T05:58:43.003Z,67.68
2018-06-02T06:01:13.184Z,66.82
2018-06-02T06:03:41.977Z,66.86
2018-06-02T06:06:10.518Z,66.04
2018-06-02T06:08:39.544Z,64.39
2018-06-02T06:11:08.273Z,63.93
2018-06-02T06:13:41.935Z,63.91
2018-06-02T06:16:10.535Z,64.39
2018-06-02T06:18:39.373Z,64.69
2018-06-02T06:21:18.906Z,63.99
2018-06-02T06:23:47.728Z,64.06
2018-06-02T06:26:16.296Z,64.18
2018-06-02T06:28:46.436Z,63.38
2018-06-02T06:31:16.161Z,63.36
2018-06-02T06:33:44.745Z,62.51
2018-06-02T06:36:13.317Z,62.32
2018-06-02T06:38:42.463Z,63.53
2018-06-02T06:41:12.033Z,63.85
2018-06-02T06:43:40.695Z,63.88
2018-06-02T06:48:42.680Z,64.08
2018-06-02T06:51:25.916Z,64.08
2018-06-02T06:53:55.123Z,63.61
2018-06-02T06:56:24.402Z,63.65
2018-06-02T06:58:52.967Z,64.36
2018-06-02T07:01:21.803Z,63.69
2018-06-02T07:03:50.359Z,63.34
2018-06-02T07:06:18.929Z,62.54
2018-06-02T07:08:47.696Z,61.74
2018-06-02T07:11:16.395Z,61.32
2018-06-02T07:13:44.943Z,61.29
2018-06-02T07:16:13.787Z,61.34
2018-06-02T07:18:42.309Z,60.71
2018-06-02T07:21:11.512Z,59.58
2018-06-02T07:23:40.286Z,59.37
2018-06-02T07:26:08.881Z,59.05
2018-06-02T07:28:37.548Z,59.14
2018-06-02T07:31:06.371Z,59.66
2018-06-02T07:33:41.762Z,60.01
2018-06-02T07:36:10.537Z,60.16
2018-06-02T07:38:39.542Z,59.59
2018-06-02T07:41:08.106Z,59.44
2018-06-02T07:43:37.519Z,59.86
2018-06-02T07:46:06.387Z,60.65
2018-06-02T07:48:34.937Z,60.89
2018-06-02T07:51:03.483Z,61.28
2018-06-02T07:53:32.350Z,61.72
2018-06-02T07:56:00.931Z,62.04
2018-06-02T07:58:29.717Z,61.96
2018-06-02T08:00:58.601Z,61.73
2018-06-02T08:03:28.467Z,62.53
2018-06-02T08:05:56.981Z,61.86
2018-06-02T08:08:25.822Z,61.43
2018-06-02T08:10:54.589Z,60.55
2018-06-02T08:13:25.371Z,60.59
2018-06-02T08:15:54.178Z,60.95
2018-06-02T08:18:25.015Z,60.57
2018-06-02T08:20:53.543Z,59.86
2018-06-02T08:23:26.884Z,59.99
2018-06-02T08:25:55.760Z,59.95
2018-06-02T08:28:24.310Z,60.95
2018-06-02T08:30:54.132Z,60.65
2018-06-02T08:33:22.739Z,61.20
2018-06-02T08:35:51.229Z,61.16
2018-06-02T08:38:20.258Z,61.14
2018-06-02T08:40:49.993Z,61.66
2018-06-02T08:43:18.528Z,60.42
2018-06-02T08:45:47.310Z,59.85
2018-06-02T08:48:16.769Z,58.72
2018-06-02T08:50:45.300Z,58.32
2018-06-02T08:53:13.920Z,57.61
2018-06-02T08:55:42.470Z,56.83
2018-06-02T08:58:11.384Z,56.37
2018-06-02T09:00:40.277Z,55.62
2018-06-02T09:03:15.338Z,54.73
2018-06-02T09:05:44.334Z,53.72
2018-06-02T09:10:44.472Z,55.47
2018-06-02T09:13:13.346Z,54.60
2018-06-02T09:15:41.947Z,54.18
2018-06-02T09:18:10.791Z,52.98
2018-06-02T09:20:40.015Z,52.52
2018-06-02T09:23:08.619Z,51.52
2018-06-02T09:25:37.615Z,51.08
2018-06-02T09:28:06.731Z,51.12
2018-06-02T09:30:35.279Z,51.45
2018-06-02T09:33:09.103Z,50.29
2018-06-02T09:35:37.926Z,50.44
2018-06-02T09:38:13.262Z,49.67
2018-06-02T09:40:41.977Z,50.87
2018-06-02T09:43:10.805Z,51.08
2018-06-02T09:45:40.377Z,51.01
2018-06-02T09:48:09.483Z,51.88
2018-06-02T09:50:38.016Z,52.06
2018-06-02T09:53:06.705Z,51.04
2018-06-02T09:55:35.550Z,50.08
2018-06-02T09:58:06.752Z,48.59
2018-06-02T10:00:37.677Z,47.58
2018-06-02T10:03:06.635Z,48.54
2018-06-02T10:05:35.170Z,50.44
2018-06-02T10:08:04.573Z,50.48
2018-06-02T10:10:34.564Z,49.21
2018-06-02T10:13:04.110Z,48.08
2018-06-02T10:15:32.660Z,48.20
2018-06-02T10:18:03.390Z,48.78
2018-06-02T10:20:31.953Z,47.62
2018-06-02T10:23:00.521Z,46.84
2018-06-02T10:25:29.550Z,47.16
2018-06-02T10:27:58.087Z,47.20
2018-06-02T10:30:27.428Z,45.85
2018-06-02T10:35:29.505Z,46.83
2018-06-02T10:38:05.345Z,46.26
2018-06-02T10:40:34.218Z,45.03
2018-06-02T10:43:03.111Z,43.63
2018-06-02T10:45:39.005Z,43.13
2018-06-02T10:48:07.822Z,42.42
2018-06-02T10:50:36.356Z,42.81
2018-06-02T10:53:05.242Z,43.81
2018-06-02T10:55:34.379Z,43.45
2018-06-02T10:58:03.842Z,44.71
2018-06-02T11:00:39.883Z,44.93
2018-06-02T11:03:08.553Z,44.10
2018-06-02T11:05:38.103Z,43.70
2018-06-02T11:08:07.000Z,42.57
2018-06-02T11:10:38.947Z,42.21
2018-06-02T11:13:07.571Z,42.51
2018-06-02T11:15:36.198Z,42.52
2018-06-02T11:18:06.118Z,43.99
2018-06-02T11:20:35.505Z,43.92
2018-06-02T11:23:04.715Z,43.39
2018-06-02T11:25:33.289Z,44.45
2018-06-02T11:28:04.495Z,44.69
2018-06-02T11:30:33.624Z,44.25
2018-06-02T11:33:02.371Z,44.66
2018-06-02T11:35:35.921Z,43.22
2018-06-02T11:38:05.275Z,41.08
2018-06-02T11:40:39.812Z,39.33
2018-06-02T11:43:08.415Z,38.32
2018-06-02T11:45:37.011Z,38.04
2018-06-02T11:48:06.875Z,41.75
2018-06-02T11:50:35.783Z,39.95
2018-06-02T11:53:04.435Z,37.61
2018-06-02T11:55:33.337Z,37.68
2018-06-02T11:58:03.780Z,37.88
2018-06-02T12:00:32.423Z,36.46
2018-06-02T12:03:01.552Z,35.81
2018-06-02T12:05:30.499Z,34.45
2018-06-02T12:07:59.023Z,33.63
2018-06-02T12:10:27.831Z,33.25
2018-06-02T12:12:56.359Z,33.00
2018-06-02T12:15:31.255Z,32.87
2018-06-02T12:18:00.092Z,32.48
2018-06-02T12:20:28.700Z,31.34
2018-06-02T12:22:57.855Z,29.98
2018-06-02T12:25:26.320Z,30.87
2018-06-02T12:27:54.824Z,30.74
2018-06-02T12:30:24.357Z,27.88
2018-06-02T12:32:52.854Z,27.56
2018-06-02T12:35:22.391Z,27.19
2018-06-02T12:37:51.113Z,28.09
2018-06-02T12:40:19.659Z,29.33
2018-06-02T12:42:52.983Z,31.01
2018-06-02T12:45:22.005Z,26.88
2018-06-02T12:47:52.389Z,23.88
2018-06-02T12:50:22.248Z,24.09
2018-06-02T12:52:52.915Z,22.91
2018-06-02T12:55:22.332Z,21.94
2018-06-02T12:57:51.149Z,19.26
2018-06-02T13:00:21.103Z,17.88
2018-06-02T13:02:50.454Z,17.96
2018-06-02T13:05:19.131Z,18.90
2018-06-02T13:07:47.930Z,16.98
2018-06-02T13:10:20.161Z,16.52
2018-06-02T13:12:49.013Z,14.52
2018-06-02T13:15:18.029Z,14.45
2018-06-02T13:17:46.550Z,14.61
2018-06-02T13:20:20.071Z,13.98
2018-06-02T13:22:48.719Z,12.92
2018-06-02T13:25:17.982Z,13.24
2018-06-02T13:27:46.563Z,13.29
2018-06-02T13:30:15.109Z,13.83
2018-06-02T13:32:44.179Z,15.06
2018-06-02T13:35:14.677Z,18.44
2018-06-02T13:37:43.222Z,16.03
2018-06-02T13:40:22.269Z,13.64
2018-06-02T13:42:51.108Z,12.71
2018-06-02T13:45:27.079Z,11.32
2018-06-02T13:47:55.888Z,10.81
2018-06-02T13:50:28.767Z,11.24
2018-06-02T13:52:57.604Z,11.65
2018-06-02T13:55:26.621Z,12.36
2018-06-02T13:57:55.115Z,13.36
2018-06-02T14:00:30.096Z,14.01
2018-06-02T14:02:58.819Z,17.03
2018-06-02T14:05:27.407Z,20.44
2018-06-02T14:08:01.356Z,17.92
2018-06-02T14:10:29.930Z,14.84
2018-06-02T14:12:58.475Z,14.28
2018-06-02T14:15:33.533Z,11.80
2018-06-02T14:20:35.776Z,10.88
2018-06-02T14:23:07.143Z,11.32
2018-06-02T14:25:35.745Z,10.42
2018-06-02T14:28:05.266Z,10.88
2018-06-02T14:30:33.784Z,11.15
2018-06-02T14:33:07.617Z,10.71
2018-06-02T14:35:36.453Z,9.88
2018-06-02T14:38:05.987Z,9.29
2018-06-02T14:40:34.772Z,10.77
2018-06-02T14:43:03.771Z,11.83
2018-06-02T14:45:32.415Z,11.46
2018-06-02T14:48:04.447Z,10.06
2018-06-02T14:50:36.526Z,11.52
2018-06-02T14:53:09.132Z,13.15
2018-06-02T14:55:38.570Z,14.43
2018-06-02T14:58:07.091Z,14.09
2018-06-02T15:00:39.722Z,13.97
2018-06-02T15:03:08.542Z,13.18
2018-06-02T15:05:37.024Z,13.48
2018-06-02T15:08:08.647Z,16.17
2018-06-02T15:10:37.462Z,16.10
2018-06-02T15:13:06.839Z,17.19
2018-06-02T15:15:35.346Z,17.01
2018-06-02T15:18:07.548Z,16.61
2018-06-02T15:20:36.095Z,15.40
2018-06-02T15:23:04.697Z,16.25
2018-06-02T15:25:33.838Z,16.71
2018-06-02T15:28:05.814Z,16.20
2018-06-02T15:30:34.651Z,18.44
2018-06-02T15:33:03.914Z,19.22
2018-06-02T15:35:32.466Z,19.57
2018-06-02T15:38:01.100Z,22.36
2018-06-02T15:40:36.422Z,21.99
2018-06-02T15:43:05.881Z,24.82
2018-06-02T15:45:34.486Z,26.75
2018-06-02T15:48:05.230Z,28.48
2018-06-02T15:50:33.802Z,28.18
2018-06-02T15:53:05.368Z,28.00
2018-06-02T15:55:34.253Z,26.89
2018-06-02T15:58:04.942Z,28.14
2018-06-02T16:00:33.756Z,27.18
2018-06-02T16:03:02.545Z,26.98
2018-06-02T16:05:31.131Z,27.33
2018-06-02T16:08:00.170Z,26.56
2018-06-02T16:10:30.393Z,27.07
2018-06-02T16:12:58.970Z,25.89
2018-06-02T16:15:27.805Z,26.17
2018-06-02T16:17:56.325Z,26.52
2018-06-02T16:20:25.015Z,26.07
2018-06-02T16:22:53.816Z,26.07
2018-06-02T16:25:22.411Z,26.20
2018-06-02T16:27:50.986Z,25.97
2018-06-02T16:30:20.818Z,26.03
2018-06-02T16:32:49.407Z,26.74
2018-06-02T16:35:17.952Z,26.75
2018-06-02T16:37:46.731Z,26.77
2018-06-02T16:40:15.362Z,27.25
2018-06-02T16:42:43.913Z,27.72
2018-06-02T16:45:12.791Z,28.16
2018-06-02T16:47:42.295Z,29.11
2018-06-02T16:50:10.846Z,31.45
2018-06-02T16:52:39.701Z,30.86
2018-06-02T16:55:08.237Z,30.10
2018-06-02T16:57:36.870Z,29.90
2018-06-02T17:00:07.057Z,30.55
2018-06-02T17:02:35.593Z,30.94
2018-06-02T17:05:04.272Z,29.44
2018-06-02T17:07:33.079Z,28.85
2018-06-02T17:10:03.426Z,28.19
2018-06-02T17:12:37.176Z,28.86
2018-06-02T17:15:05.752Z,29.00
2018-06-02T17:17:34.278Z,29.19
2018-06-02T17:20:08.832Z,29.64
2018-06-02T17:22:37.516Z,30.54
2018-06-02T17:25:13.416Z,31.72
2018-06-02T17:27:42.385Z,32.20
2018-06-02T17:30:11.141Z,33.61
2018-06-02T17:32:39.991Z,33.60
2018-06-02T17:35:08.557Z,32.64
2018-06-02T17:37:37.863Z,31.80
2018-06-02T17:40:06.655Z,31.10
2018-06-02T17:42:35.156Z,31.08
2018-06-02T17:45:04.407Z,31.05
2018-06-02T17:47:35.364Z,31.13
2018-06-02T17:50:04.845Z,31.28
2018-06-02T17:52:37.099Z,31.72
2018-06-02T17:55:05.971Z,32.57
2018-06-02T17:57:34.576Z,32.45
2018-06-02T18:00:04.739Z,32.35
2018-06-02T18:02:33.549Z,32.18
2018-06-02T18:07:42.592Z,32.17
2018-06-02T18:10:17.232Z,32.75
2018-06-02T18:12:45.742Z,33.57
2018-06-02T18:15:14.504Z,33.77
2018-06-02T18:17:43.080Z,34.58
2018-06-02T18:20:15.008Z,34.38
2018-06-02T18:22:43.830Z,34.86
2018-06-02T18:25:13.899Z,34.97
2018-06-02T18:27:42.472Z,34.98
2018-06-02T18:30:12.957Z,35.11
2018-06-02T18:32:41.540Z,35.46
2018-06-02T18:35:11.769Z,35.89
2018-06-02T18:37:40.602Z,36.63
2018-06-02T18:40:09.329Z,37.34
2018-06-02T18:42:43.351Z,37.48
2018-06-02T18:45:12.139Z,38.30
2018-06-02T18:47:40.868Z,38.68
2018-06-02T18:50:10.015Z,38.85
2018-06-02T18:52:38.561Z,38.92
2018-06-02T18:55:12.113Z,39.24
2018-06-02T18:57:41.126Z,39.68
2018-06-02T19:00:09.663Z,40.41
2018-06-02T19:02:38.247Z,40.72
2018-06-02T19:05:07.099Z,41.34
2018-06-02T19:07:46.707Z,41.92
2018-06-02T19:10:15.375Z,42.61
2018-06-02T19:12:45.988Z,42.96
2018-06-02T19:15:15.219Z,43.30
2018-06-02T19:17:50.193Z,43.96
2018-06-02T19:20:19.305Z,44.07
2018-06-02T19:22:47.980Z,44.18
2018-06-02T19:25:16.824Z,44.07
2018-06-02T19:27:45.378Z,44.19
2018-06-02T19:30:13.887Z,44.46
2018-06-02T19:32:44.549Z,44.75
2018-06-02T19:35:14.059Z,44.42
2018-06-02T19:37:42.675Z,44.69
2018-06-02T19:40:11.763Z,44.73
2018-06-02T19:42:40.718Z,44.79
2018-06-02T19:45:16.412Z,45.09
2018-06-02T19:47:45.240Z,45.13
2018-06-02T19:50:14.370Z,45.21
2018-06-02T19:52:42.918Z,45.26
2018-06-02T19:55:11.948Z,45.36
2018-06-02T19:57:40.651Z,45.41
2018-06-02T20:00:09.184Z,45.67
2018-06-02T20:02:42.603Z,45.64
2018-06-02T20:05:11.185Z,45.68
2018-06-02T20:07:54.458Z,45.81
2018-06-02T20:10:33.646Z,45.89
2018-06-02T20:13:02.317Z,46.18
2018-06-02T20:15:31.208Z,46.48
2018-06-02T20:17:59.744Z,46.62
2018-06-02T20:20:28.399Z,46.89
2018-06-02T20:22:57.297Z,46.83
2018-06-02T20:25:30.269Z,47.09
2018-06-02T20:27:58.808Z,47.31
2018-06-02T20:30:31.846Z,47.63
2018-06-02T20:33:00.360Z,48.16
2018-06-02T20:35:30.041Z,48.32
2018-06-02T20:37:58.583Z,48.74
2018-06-02T20:40:27.122Z,48.87
2018-06-02T20:42:56.017Z,48.79
2018-06-02T20:45:25.262Z,49.13
2018-06-02T20:47:54.010Z,49.43
2018-06-02T20:50:28.533Z,49.69
2018-06-02T20:52:57.238Z,49.98
2018-06-02T20:55:25.835Z,50.21
2018-06-02T20:57:54.749Z,50.63
2018-06-02T21:00:23.328Z,50.81
2018-06-02T21:02:51.899Z,51.03
2018-06-02T21:05:21.623Z,51.46
2018-06-02T21:07:56.475Z,52.00
2018-06-02T21:10:25.203Z,52.00
2018-06-02T21:12:53.776Z,52.39
2018-06-02T21:15:22.290Z,52.71
2018-06-02T21:17:51.078Z,52.86
2018-06-02T21:20:19.675Z,53.19
2018-06-02T21:22:50.036Z,53.37
2018-06-02T21:25:20.376Z,53.51
2018-06-02T21:27:48.955Z,53.69
2018-06-02T21:30:17.530Z,53.83
2018-06-02T21:32:46.297Z,53.42
2018-06-02T21:35:15.084Z,53.59
2018-06-02T21:37:43.822Z,53.54
2018-06-02T21:40:13.594Z,53.73
2018-06-02T21:42:42.161Z,53.82
2018-06-02T21:45:10.782Z,53.85
2018-06-02T21:47:39.603Z,53.96
2018-06-02T21:50:08.319Z,54.35
2018-06-02T21:52:36.892Z,54.43
2018-06-02T21:55:26.347Z,54.45
2018-06-02T21:57:54.906Z,54.69
2018-06-02T22:00:23.863Z,54.89
2018-06-02T22:02:52.714Z,54.91
2018-06-02T22:05:21.309Z,54.83
2018-06-02T22:07:50.187Z,55.00
2018-06-02T22:10:19.042Z,55.39
2018-06-02T22:12:47.709Z,55.76
2018-06-02T22:15:21.023Z,55.66
2018-06-02T22:17:49.576Z,55.87
2018-06-02T22:20:18.131Z,56.11
2018-06-02T22:22:51.615Z,56.40
2018-06-02T22:25:20.180Z,56.68
2018-06-02T22:27:50.518Z,56.85
2018-06-02T22:30:19.644Z,57.04
2018-06-02T22:32:48.578Z,57.24
2018-06-02T22:35:18.467Z,57.35
2018-06-02T22:37:47.559Z,57.54
2018-06-02T22:40:16.128Z,57.74
2018-06-02T22:42:44.696Z,58.11
2018-06-02T22:45:21.282Z,58.17
2018-06-02T22:47:49.852Z,58.46
2018-06-02T22:50:18.636Z,58.50
2018-06-02T22:52:47.291Z,58.76
2018-06-02T22:55:16.958Z,58.90
2018-06-02T22:57:50.880Z,59.10
2018-06-02T23:00:20.589Z,59.28
2018-06-02T23:02:49.228Z,59.61
2018-06-02T23:05:17.804Z,59.69
2018-06-02T23:07:54.071Z,59.74
2018-06-02T23:10:23.272Z,59.73
2018-06-02T23:12:51.798Z,59.89
2018-06-02T23:15:26.405Z,59.99
2018-06-02T23:17:54.918Z,60.07
2018-06-02T23:20:23.588Z,60.21
2018-06-02T23:22:52.747Z,60.44
2018-06-02T23:25:21.264Z,60.57
2018-06-02T23:27:49.787Z,60.75
2018-06-02T23:30:18.352Z,60.91
2018-06-02T23:32:46.912Z,61.10
2018-06-02T23:35:15.693Z,61.05
2018-06-02T23:37:44.518Z,61.33
2018-06-02T23:40:13.138Z,61.71
2018-06-02T23:42:41.958Z,61.78
2018-06-02T23:45:10.616Z,61.92
2018-06-02T23:47:41.097Z,62.03
2018-06-02T23:50:10.596Z,62.05
2018-06-02T23:52:39.668Z,62.24
2018-06-02T23:55:08.679Z,62.37
2018-06-02T23:57:37.627Z,62.62
